Flight Track Log - Related Links

Times and Time Zones

All times are in EDT time to prevent confusion due to time zone crossing. See the DAL6234 flight status page for this flight to view local times or setup timezone preferences in your user account.

Time Position Orientation Groundspeed Altitude Reporting Facility
EDT Latitude Longitude Course Direction KTS MPH feet Rate Location/Type
Mon 07:21:08 PM 43.1086 -76.0978 112° Southeast 150 173 1,100  Level Boston Center
Mon 07:22:20 PM 43.0861 -76.0197 112° Southeast 226 260 3,200 2,344 Climbing Boston Center
Mon 07:23:39 PM 43.0200 -75.9306 135° Southeast 268 308 7,000 2,978 Climbing Boston Center
Mon 07:24:39 PM 42.9700 -75.8681 138° Southeast 268 308 10,100 3,050 Climbing Boston Center
Mon 07:25:39 PM 42.9097 -75.7911 137° Southeast 275 316 13,100 2,450 Climbing Boston Center
Mon 07:26:39 PM 42.8431 -75.7108 139° Southeast 298 343 15,000 1,850 Climbing Boston Center
Mon 07:27:39 PM 42.7686 -75.6164 137° Southeast 335 386 16,800 1,550 Climbing Boston Center
Mon 07:28:39 PM 42.6881 -75.5164 138° Southeast 369 425 18,100 600 Climbing Boston Center
Mon 07:29:39 PM 42.6014 -75.4106 138° Southeast 401 461 18,000 -50 Descending Boston Center
Mon 07:30:39 PM 42.5164 -75.3022 137° Southeast 418 481 18,000  Level Boston Center
Mon 07:31:39 PM 42.4425 -75.1778 129° Southeast 418 481 18,000  Level Boston Center
Mon 07:32:39 PM 42.3894 -75.0347 117° Southeast 418 481 18,000  Level Boston Center
Mon 07:33:39 PM 42.3386 -74.8922 116° Southeast 424 488 18,000  Level Boston Center
Mon 07:34:39 PM 42.2850 -74.7525 117° Southeast 419 482 18,000  Level Boston Center
Mon 07:35:39 PM 42.2336 -74.6106 116° Southeast 419 482 18,000  Level Boston Center
Mon 07:36:39 PM 42.1800 -74.4686 117° Southeast 419 482 18,000  Level Boston Center
Mon 07:37:39 PM 42.1139 -74.3153 120° Southeast 419 482 18,000 -300 Level Boston Center
Mon 07:38:39 PM 42.0258 -74.2203 141° Southeast 400 460 17,400 -1,100 Descending Boston Center
Mon 07:39:39 PM 41.9225 -74.1617 157° South 399 459 15,800 -1,500 Descending Boston Center
Mon 07:40:39 PM 41.8256 -74.0978 154° Southeast 399 459 14,400 -1,200 Descending Boston Center
Mon 07:41:39 PM 41.7264 -74.0367 155° Southeast 399 459 13,400 -1,050 Descending Boston Center
Mon 07:42:39 PM 41.6314 -73.9761 155° Southeast 393 452 12,300 -1,014 Descending Boston Center
Mon 07:44:07 PM 41.5000 -73.9000 157° South 314 361 10,900 -930 Descending New York TRACON
Mon 07:45:01 PM 41.4333 -73.8500 151° Southeast 274 315 10,100 -900 Descending New York TRACON
Mon 07:46:07 PM 41.3667 -73.8167 159° South 280 322 9,100 -600 Descending New York TRACON
Mon 07:47:01 PM 41.3000 -73.7667 151° Southeast 284 327 8,900 -737 Descending New York TRACON
Mon 07:48:01 PM 41.2333 -73.7000 143° Southeast 270 311 7,700 -1,190 Descending New York TRACON
Mon 07:49:07 PM 41.1667 -73.6500 151° Southeast 257 296 6,400 -1,095 Descending New York TRACON
Mon 07:50:07 PM 41.1167 -73.6000 143° Southeast 261 300 5,400 -947 Descending New York TRACON
Mon 07:51:01 PM 41.0500 -73.6500 209° Southwest 282 325 4,600 -650 Descending New York TRACON
Mon 07:52:07 PM 40.9833 -73.7000 210° Southwest 272 313 4,100 -250 Descending New York TRACON
Mon 07:53:01 PM 40.9333 -73.7667 225° Southwest 269 310 4,100  Level New York TRACON
Mon 07:54:01 PM 40.9167 -73.8667 258° West 275 316 4,100  Level New York TRACON
Mon 07:55:01 PM 40.8667 -73.9333 225° Southwest 261 300 4,100  Level New York TRACON
Mon 07:56:01 PM 40.8000 -73.9667 201° Southwest 260 299 4,100  Level New York TRACON
Mon 07:56:55 PM 40.7500 -74.0167 217° Southwest 244 281 4,100  Level New York TRACON
Mon 07:58:01 PM 40.7000 -74.0500 207° Southwest 186 214 4,100 -182 Level New York TRACON
Mon 07:59:07 PM 40.6500 -74.0833 207° Southwest 198 228 3,700 -450 Descending New York TRACON
Mon 08:00:01 PM 40.6167 -74.0833 180° South 191 220 3,200 -350 Descending New York TRACON
Mon 08:01:07 PM 40.6167 -74.0333 90° East 159 183 3,000 -190 Descending New York TRACON
Mon 08:02:07 PM 40.6500 -73.9833 49° Northeast 169 194 2,800 -421 Descending New York TRACON
Mon 08:03:01 PM 40.6833 -73.9500 37° Northeast 172 198 2,200 -789 Descending New York TRACON
Mon 08:04:01 PM 40.7167 -73.9333 21° North 147 169 1,300 -800 Descending New York TRACON
Mon 08:05:01 PM 40.7500 -73.9000 37° Northeast 124 143 600 -700 Descending New York TRACON

Login

Don't have an account? Register now (free) for customized features, flight alerts, and more!